Amunt
Inicio > meteoXarxa
Fes-te'n soci

METEOXARXA

Vilanova d′Alcolea
Ubicació aeroport
Comarca la Plana Alta
Altitud (msnm) 350
Posició geogràfica 40° 12' 35.00" N, 00° 4' 11.00" E
Model Davis Vantage Pro
Presa de dades
Font de les dades Universitat Jaume I de Castelló
Estadístiques. Resum
Data Temperatura (ºC) Humitat (%) Pressió (hPa) Vent (km/h) Precipit. (mm)
Mínima Mitjana Màxima Mínima Mitjana Màxima Mínima Mitjana Màxima Predom. Mitjana Ràfega màxima Total Dies de pluja
Mínima Mitjana Màxima Mínima Mitjana Màxima
Últimes dades diàries
24-02-2017 7,5     11,8     15,3 NE 11,1 43,5 4,1  
23-02-2017 8,6     11,9     17,6 ENE 5,5 32,2 0,0  
22-02-2017 5,2     11,1     17,8 SW 5,5 27,4 0,0  
21-02-2017 4,1     9,4     16,7 SW 6,8 25,7 0,0  
20-02-2017 4,3     8,9     14,8 SW 5,6 25,7 0,0  
19-02-2017 6,2     9,6     13,2 ENE 9,5 30,6 0,0  
18-02-2017 5,2     9,3     13,7 S 5,1 25,7 0,5  
17-02-2017 6,6     9,8     14,4 S 4,7 25,7 0,3  
16-02-2017 8,5     10,8     13,0 E 4,2 24,1 0,3  
15-02-2017 5,7     9,8     13,6 ENE 5,0 24,1 0,3  
14-02-2017 6,0     10,1     14,6 NNE 5,0 29,0 0,3  
13-02-2017 9,7     11,7     13,9 NNE 15,1 48,3 9,9  
12-02-2017 10,9     11,7     12,8 E 17,1 33,8 0,0  
11-02-2017 6,2     9,2     11,8 ENE 16,4 37,0 1,0  
10-02-2017 2,4     6,6     10,9 SSW 5,3 29,0 0,0  
09-02-2017 5,1     8,4     13,3 SSW 15,0 61,2 0,0  
08-02-2017 7,4     8,9     11,2 N 104,6 0,0  
07-02-2017 9,1     15,2     18,9 NNW 12,6 53,1 0,0  
06-02-2017 9,5     13,6     17,3 NNW 24,8 90,1 0,0  
05-02-2017 7,8     12,4     15,6 NNW 38,0 96,6 3,6  
04-02-2017 12,1     15,6     19,3 SW 16,7 53,1 0,0  
03-02-2017 7,0     12,6     17,7 SW 17,9 54,7 0,0  
02-02-2017 6,4     9,3     12,1 S 7,6 33,8 3,6  
01-02-2017 7,0     9,6     13,3 SW 4,2 24,1 0,3  
31-01-2017 6,6     10,4     13,7 S 5,1 22,5 0,0  
30-01-2017 6,8     10,5     16,4 W 3,4 19,3 0,0  
29-01-2017 4,6     8,8     13,1 W 6,8 27,4 0,0  
28-01-2017 7,8     10,4     13,2 N 18,0 54,7 1,0  
27-01-2017 6,4     9,0     12,9 SW 6,3 33,8 13,5  
26-01-2017 2,1     5,9     9,0 ENE 5,8 25,7 0,0  
25-01-2017 1,4     6,1     10,4 SSE 7,9 30,6 0,0  
24-01-2017 5,1     9,2     14,1 NE 5,1 24,1 0,0  
Dades del mes en curs (actualitzades fins l'últim dia disponible)
02/2017 2,4 7,0 12,1 10,7 10,9 14,7 19,3   11,2 104,6 24,2  
Últimes dades mensuals
01/2017 -2,2 4,4 9,1 8,3 6,2 12,6 18,5 14,8 133,6 135,6 12
12/2016 1,4 6,9 12,8 10,0 9,9 14,5 17,3 0,4 17,7 92,2 16
11/2016 3,6 8,8 13,5 12,7 10,8 17,3 22,5 0,5 16,1 75,5 16
10/2016 9,9 14,0 17,3 17,4 15,8 21,2 25,5 3,5 35,4 53,0 18
09/2016 10,6 17,0 22,9 21,2 22,2 25,5 34,4 6,5 61,2 45,8 5
08/2016 14,3 18,8 21,9 23,0 22,9 26,9 30,7 6,0 45,1 16,1 4
07/2016 13,8 19,0 21,3 23,4 23,3 27,5 31,3 9,4 46,7 0,0 0
06/2016 11,6 16,1 19,8 20,5 21,2 24,8 28,4 9,0 49,9 1,3 2
05/2016 5,9 12,1 16,1 15,9 15,0 19,8 25,6 10,1 82,1 35,2 9
04/2016 4,6 9,4 11,9 13,3 13,3 17,3 24,6 11,8 64,4 44,6 9
03/2016 2,7 6,9 9,7 10,9 10,9 15,1 21,3 10,2 78,9 42,4 8
02/2016 -0,6 6,1 13,9 10,7 8,7 15,5 22,3 11,7 96,6 11,0 6
01/2016 2,5 6,7 11,7 10,8 9,7 15,1 20,6 8,6 83,7 2,4 4
Dades de l'any en curs (actualitzades fins l'últim dia disponible)
2017 -2,2 5,6 12,1 9,4 6,2 13,5 19,3   12,8 133,6 159,8  
Últimes dades anuals
2015 -0,4 11,7 18,5 15,9 19,9 20,3 38,3 9,6 103,0 562,9 90
2016 -0,6 11,8 22,9 15,8 8,7 20,0 34,4 7,3 96,6 419,5 97